Menges Mills, Pennsylvania
Current Conditions -  °F | °C
As of 9:53 AM on Sunday 21 Dec 2014 (Local Time) from KTHV Reporting Station
Clear Clear  
Wind Chill: 29°   Ceiling: Unl
Heat Index: 34°   Visibility: 10mi
Dew Point: 23°   Wind: 6mph
Humidity: 64%   Direction: NA
Pressure: 30.34"   Gusts: NA
Location:  39.86°N, 76.9°W
Report Text: KTHV 211453Z AUTO VRB05KT 10SM CLR 01/M05 A3034 RMK AO2 SLP282 T00111050 53010
Loading
Personal Weather Stations






























Interactive Weather Map New forecast layout! Learn more

10-Day Weather Forecast

Advertisements
Track Severe Weather on mobile